sensor_id;sensor_type;location;lat;lon;timestamp;temperature;humidity
41469;DHT22;27206;47.032;15.484;2023-10-31T00:01:03;15.10;99.90
41469;DHT22;27206;47.032;15.484;2023-10-31T00:03:30;15.10;99.90
41469;DHT22;27206;47.032;15.484;2023-10-31T00:05:56;15.10;99.90
41469;DHT22;27206;47.032;15.484;2023-10-31T00:08:21;15.20;99.90
41469;DHT22;27206;47.032;15.484;2023-10-31T00:10:47;15.20;99.90
41469;DHT22;27206;47.032;15.484;2023-10-31T00:13:12;15.10;99.90
41469;DHT22;27206;47.032;15.484;2023-10-31T00:15:38;15.00;99.90
41469;DHT22;27206;47.032;15.484;2023-10-31T00:18:04;15.10;99.90
41469;DHT22;27206;47.032;15.484;2023-10-31T00:20:29;15.10;99.90
41469;DHT22;27206;47.032;15.484;2023-10-31T00:22:55;15.00;99.90
41469;DHT22;27206;47.032;15.484;2023-10-31T00:25:20;15.00;99.90
41469;DHT22;27206;47.032;15.484;2023-10-31T00:27:46;14.90;99.90
41469;DHT22;27206;47.032;15.484;2023-10-31T00:30:12;14.80;99.90
41469;DHT22;27206;47.032;15.484;2023-10-31T00:32:38;14.80;99.90
41469;DHT22;27206;47.032;15.484;2023-10-31T00:35:04;14.80;99.90
41469;DHT22;27206;47.032;15.484;2023-10-31T00:37:30;14.80;99.90
41469;DHT22;27206;47.032;15.484;2023-10-31T00:39:55;14.80;99.90
41469;DHT22;27206;47.032;15.484;2023-10-31T00:42:21;14.90;99.90
41469;DHT22;27206;47.032;15.484;2023-10-31T00:44:46;15.00;99.90
41469;DHT22;27206;47.032;15.484;2023-10-31T00:47:12;15.00;99.90
41469;DHT22;27206;47.032;15.484;2023-10-31T00:49:38;15.10;99.90
41469;DHT22;27206;47.032;15.484;2023-10-31T00:52:03;15.10;99.90
41469;DHT22;27206;47.032;15.484;2023-10-31T00:54:29;15.20;99.90
41469;DHT22;27206;47.032;15.484;2023-10-31T00:56:55;15.20;99.90
41469;DHT22;27206;47.032;15.484;2023-10-31T00:59:20;15.20;99.90
41469;DHT22;27206;47.032;15.484;2023-10-31T01:01:46;15.10;99.90
41469;DHT22;27206;47.032;15.484;2023-10-31T01:04:11;15.10;99.90
41469;DHT22;27206;47.032;15.484;2023-10-31T01:06:41;15.10;99.90
41469;DHT22;27206;47.032;15.484;2023-10-31T01:09:07;15.20;99.90
41469;DHT22;27206;47.032;15.484;2023-10-31T01:11:33;15.20;99.90
41469;DHT22;27206;47.032;15.484;2023-10-31T01:13:58;15.10;99.90
41469;DHT22;27206;47.032;15.484;2023-10-31T01:16:24;15.10;99.90
41469;DHT22;27206;47.032;15.484;2023-10-31T01:18:50;15.20;99.90
41469;DHT22;27206;47.032;15.484;2023-10-31T01:21:15;15.30;99.90
41469;DHT22;27206;47.032;15.484;2023-10-31T01:23:41;15.40;98.90
41469;DHT22;27206;47.032;15.484;2023-10-31T01:26:07;15.40;99.30
41469;DHT22;27206;47.032;15.484;2023-10-31T01:28:32;15.70;93.50
41469;DHT22;27206;47.032;15.484;2023-10-31T01:30:58;15.70;93.50
41469;DHT22;27206;47.032;15.484;2023-10-31T01:33:23;15.70;95.00
41469;DHT22;27206;47.032;15.484;2023-10-31T01:35:49;15.60;97.70
41469;DHT22;27206;47.032;15.484;2023-10-31T01:38:15;15.50;99.90
41469;DHT22;27206;47.032;15.484;2023-10-31T01:40:40;15.40;99.90
41469;DHT22;27206;47.032;15.484;2023-10-31T01:43:06;15.30;99.90
41469;DHT22;27206;47.032;15.484;2023-10-31T01:45:31;15.30;99.90
41469;DHT22;27206;47.032;15.484;2023-10-31T01:47:57;15.30;99.90
41469;DHT22;27206;47.032;15.484;2023-10-31T01:50:24;15.20;99.90
41469;DHT22;27206;47.032;15.484;2023-10-31T01:52:49;15.10;99.90
41469;DHT22;27206;47.032;15.484;2023-10-31T01:55:15;15.10;99.90
41469;DHT22;27206;47.032;15.484;2023-10-31T01:57:41;15.10;99.90
41469;DHT22;27206;47.032;15.484;2023-10-31T02:00:09;15.00;99.90
41469;DHT22;27206;47.032;15.484;2023-10-31T02:02:37;15.00;99.90
41469;DHT22;27206;47.032;15.484;2023-10-31T02:05:05;15.00;99.90
41469;DHT22;27206;47.032;15.484;2023-10-31T02:07:31;14.90;99.90
41469;DHT22;27206;47.032;15.484;2023-10-31T02:09:57;14.90;99.90
41469;DHT22;27206;47.032;15.484;2023-10-31T02:12:33;14.90;99.90
41469;DHT22;27206;47.032;15.484;2023-10-31T02:14:59;14.90;99.90
41469;DHT22;27206;47.032;15.484;2023-10-31T02:17:25;14.80;99.90
41469;DHT22;27206;47.032;15.484;2023-10-31T02:19:50;14.70;99.90
41469;DHT22;27206;47.032;15.484;2023-10-31T02:22:16;14.70;99.90
41469;DHT22;27206;47.032;15.484;2023-10-31T02:24:42;14.70;99.90
41469;DHT22;27206;47.032;15.484;2023-10-31T02:27:07;14.80;99.90
41469;DHT22;27206;47.032;15.484;2023-10-31T02:29:33;14.80;99.90
41469;DHT22;27206;47.032;15.484;2023-10-31T02:31:59;14.80;99.90
41469;DHT22;27206;47.032;15.484;2023-10-31T02:34:24;14.80;99.90
41469;DHT22;27206;47.032;15.484;2023-10-31T02:36:51;14.80;99.90
41469;DHT22;27206;47.032;15.484;2023-10-31T02:39:17;14.80;99.90
41469;DHT22;27206;47.032;15.484;2023-10-31T02:41:43;14.80;99.90
41469;DHT22;27206;47.032;15.484;2023-10-31T02:44:09;14.80;99.90
41469;DHT22;27206;47.032;15.484;2023-10-31T02:46:38;14.80;99.90
41469;DHT22;27206;47.032;15.484;2023-10-31T02:49:04;14.80;99.90
41469;DHT22;27206;47.032;15.484;2023-10-31T02:51:29;14.80;99.90
41469;DHT22;27206;47.032;15.484;2023-10-31T02:53:55;14.90;99.90
41469;DHT22;27206;47.032;15.484;2023-10-31T02:56:21;14.90;99.90
41469;DHT22;27206;47.032;15.484;2023-10-31T02:58:46;14.90;99.90
41469;DHT22;27206;47.032;15.484;2023-10-31T03:01:12;14.90;99.90
41469;DHT22;27206;47.032;15.484;2023-10-31T03:03:37;14.90;99.90
41469;DHT22;27206;47.032;15.484;2023-10-31T03:06:05;14.90;99.90
41469;DHT22;27206;47.032;15.484;2023-10-31T03:08:30;14.90;99.90
41469;DHT22;27206;47.032;15.484;2023-10-31T03:10:56;14.90;99.90
41469;DHT22;27206;47.032;15.484;2023-10-31T03:13:22;14.90;99.90
41469;DHT22;27206;47.032;15.484;2023-10-31T03:15:49;14.90;99.90
41469;DHT22;27206;47.032;15.484;2023-10-31T03:18:15;14.90;99.90
41469;DHT22;27206;47.032;15.484;2023-10-31T03:20:43;14.90;99.90
41469;DHT22;27206;47.032;15.484;2023-10-31T03:23:09;14.90;99.90
41469;DHT22;27206;47.032;15.484;2023-10-31T03:25:34;14.80;99.90
41469;DHT22;27206;47.032;15.484;2023-10-31T03:28:00;14.80;99.90
41469;DHT22;27206;47.032;15.484;2023-10-31T03:30:25;14.80;99.90
41469;DHT22;27206;47.032;15.484;2023-10-31T03:32:51;14.80;99.90
41469;DHT22;27206;47.032;15.484;2023-10-31T03:35:17;14.70;99.90
41469;DHT22;27206;47.032;15.484;2023-10-31T03:37:42;14.70;99.90
41469;DHT22;27206;47.032;15.484;2023-10-31T03:40:09;14.60;99.90
41469;DHT22;27206;47.032;15.484;2023-10-31T03:42:34;14.60;99.90
41469;DHT22;27206;47.032;15.484;2023-10-31T03:45:00;14.50;99.90
41469;DHT22;27206;47.032;15.484;2023-10-31T03:47:25;14.50;99.90
41469;DHT22;27206;47.032;15.484;2023-10-31T03:49:51;14.30;99.90
41469;DHT22;27206;47.032;15.484;2023-10-31T03:52:17;14.30;99.90
41469;DHT22;27206;47.032;15.484;2023-10-31T03:54:43;14.30;99.90
41469;DHT22;27206;47.032;15.484;2023-10-31T03:57:08;14.20;99.90
41469;DHT22;27206;47.032;15.484;2023-10-31T03:59:37;14.20;99.90
41469;DHT22;27206;47.032;15.484;2023-10-31T04:02:03;14.20;99.90
41469;DHT22;27206;47.032;15.484;2023-10-31T04:04:28;14.10;99.90
41469;DHT22;27206;47.032;15.484;2023-10-31T04:06:54;14.10;99.90
41469;DHT22;27206;47.032;15.484;2023-10-31T04:09:20;14.10;99.90
41469;DHT22;27206;47.032;15.484;2023-10-31T04:11:46;14.00;99.90
41469;DHT22;27206;47.032;15.484;2023-10-31T04:14:11;14.00;99.90
41469;DHT22;27206;47.032;15.484;2023-10-31T04:16:41;14.00;99.90
41469;DHT22;27206;47.032;15.484;2023-10-31T04:19:11;14.00;99.90
41469;DHT22;27206;47.032;15.484;2023-10-31T04:21:38;14.00;99.90
41469;DHT22;27206;47.032;15.484;2023-10-31T04:24:04;14.10;99.90
41469;DHT22;27206;47.032;15.484;2023-10-31T04:26:29;14.10;99.90
41469;DHT22;27206;47.032;15.484;2023-10-31T04:28:55;14.00;99.90
41469;DHT22;27206;47.032;15.484;2023-10-31T04:31:20;14.10;99.90
41469;DHT22;27206;47.032;15.484;2023-10-31T04:33:46;14.00;99.90
41469;DHT22;27206;47.032;15.484;2023-10-31T04:36:12;14.10;99.90
41469;DHT22;27206;47.032;15.484;2023-10-31T04:38:37;14.00;99.90
41469;DHT22;27206;47.032;15.484;2023-10-31T04:41:03;14.00;99.90
41469;DHT22;27206;47.032;15.484;2023-10-31T04:43:29;14.00;99.90
41469;DHT22;27206;47.032;15.484;2023-10-31T04:45:55;14.00;99.90
41469;DHT22;27206;47.032;15.484;2023-10-31T04:48:21;14.00;99.90
41469;DHT22;27206;47.032;15.484;2023-10-31T04:50:46;14.10;99.90
41469;DHT22;27206;47.032;15.484;2023-10-31T04:53:12;14.00;99.90
41469;DHT22;27206;47.032;15.484;2023-10-31T04:55:37;14.00;99.90
41469;DHT22;27206;47.032;15.484;2023-10-31T04:58:03;14.00;99.90
41469;DHT22;27206;47.032;15.484;2023-10-31T05:00:29;13.90;99.90
41469;DHT22;27206;47.032;15.484;2023-10-31T05:02:54;13.90;99.90
41469;DHT22;27206;47.032;15.484;2023-10-31T05:05:21;13.80;99.90
41469;DHT22;27206;47.032;15.484;2023-10-31T05:07:47;13.90;99.90
41469;DHT22;27206;47.032;15.484;2023-10-31T05:10:13;13.90;99.90
41469;DHT22;27206;47.032;15.484;2023-10-31T05:12:38;13.90;99.90
41469;DHT22;27206;47.032;15.484;2023-10-31T05:15:04;13.80;99.90
41469;DHT22;27206;47.032;15.484;2023-10-31T05:17:30;13.80;99.90
41469;DHT22;27206;47.032;15.484;2023-10-31T05:19:56;13.70;99.90
41469;DHT22;27206;47.032;15.484;2023-10-31T05:22:21;13.60;99.90
41469;DHT22;27206;47.032;15.484;2023-10-31T05:24:47;13.60;99.90
41469;DHT22;27206;47.032;15.484;2023-10-31T05:27:13;13.60;99.90
41469;DHT22;27206;47.032;15.484;2023-10-31T05:29:39;13.60;99.90
41469;DHT22;27206;47.032;15.484;2023-10-31T05:32:04;13.60;99.90
41469;DHT22;27206;47.032;15.484;2023-10-31T05:34:30;13.60;99.90
41469;DHT22;27206;47.032;15.484;2023-10-31T05:36:56;13.60;99.90
41469;DHT22;27206;47.032;15.484;2023-10-31T05:39:21;13.60;99.90
41469;DHT22;27206;47.032;15.484;2023-10-31T05:41:47;13.70;99.90
41469;DHT22;27206;47.032;15.484;2023-10-31T05:44:13;13.70;99.90
41469;DHT22;27206;47.032;15.484;2023-10-31T05:46:39;13.70;99.90
41469;DHT22;27206;47.032;15.484;2023-10-31T05:49:06;13.70;99.90
41469;DHT22;27206;47.032;15.484;2023-10-31T05:51:32;13.70;99.90
41469;DHT22;27206;47.032;15.484;2023-10-31T05:54:00;13.50;99.90
41469;DHT22;27206;47.032;15.484;2023-10-31T05:56:26;13.60;99.90
41469;DHT22;27206;47.032;15.484;2023-10-31T05:58:51;13.60;99.90
41469;DHT22;27206;47.032;15.484;2023-10-31T06:01:17;13.70;99.90
41469;DHT22;27206;47.032;15.484;2023-10-31T06:03:43;13.60;99.90
41469;DHT22;27206;47.032;15.484;2023-10-31T06:06:10;13.70;99.90
41469;DHT22;27206;47.032;15.484;2023-10-31T06:08:36;13.70;99.90
41469;DHT22;27206;47.032;15.484;2023-10-31T06:11:03;13.70;99.90
41469;DHT22;27206;47.032;15.484;2023-10-31T06:13:29;13.70;99.90
41469;DHT22;27206;47.032;15.484;2023-10-31T06:15:56;13.60;99.90
41469;DHT22;27206;47.032;15.484;2023-10-31T06:18:23;13.60;99.90
41469;DHT22;27206;47.032;15.484;2023-10-31T06:20:49;13.60;99.90
41469;DHT22;27206;47.032;15.484;2023-10-31T06:23:14;13.60;99.90
41469;DHT22;27206;47.032;15.484;2023-10-31T06:25:40;13.60;99.90
41469;DHT22;27206;47.032;15.484;2023-10-31T06:28:05;13.60;99.90
41469;DHT22;27206;47.032;15.484;2023-10-31T06:30:31;13.60;99.90
41469;DHT22;27206;47.032;15.484;2023-10-31T06:32:57;13.60;99.90
41469;DHT22;27206;47.032;15.484;2023-10-31T06:35:23;13.60;99.90
41469;DHT22;27206;47.032;15.484;2023-10-31T06:37:55;13.60;99.90
41469;DHT22;27206;47.032;15.484;2023-10-31T06:40:23;13.50;99.90
41469;DHT22;27206;47.032;15.484;2023-10-31T06:42:49;13.40;99.90
41469;DHT22;27206;47.032;15.484;2023-10-31T06:45:15;13.50;99.90
41469;DHT22;27206;47.032;15.484;2023-10-31T06:47:40;13.60;99.90
41469;DHT22;27206;47.032;15.484;2023-10-31T06:50:07;13.60;99.90
41469;DHT22;27206;47.032;15.484;2023-10-31T06:52:33;13.50;99.90
41469;DHT22;27206;47.032;15.484;2023-10-31T06:54:59;13.60;99.90
41469;DHT22;27206;47.032;15.484;2023-10-31T06:57:24;13.60;99.90
41469;DHT22;27206;47.032;15.484;2023-10-31T06:59:50;13.60;99.90
41469;DHT22;27206;47.032;15.484;2023-10-31T07:02:15;13.60;99.90
41469;DHT22;27206;47.032;15.484;2023-10-31T07:04:41;13.60;99.90
41469;DHT22;27206;47.032;15.484;2023-10-31T07:07:07;13.50;99.90
41469;DHT22;27206;47.032;15.484;2023-10-31T07:09:32;13.50;99.90
41469;DHT22;27206;47.032;15.484;2023-10-31T07:11:58;13.50;99.90
41469;DHT22;27206;47.032;15.484;2023-10-31T07:14:23;13.50;99.90
41469;DHT22;27206;47.032;15.484;2023-10-31T07:16:49;13.60;99.90
41469;DHT22;27206;47.032;15.484;2023-10-31T07:19:15;13.60;99.90
41469;DHT22;27206;47.032;15.484;2023-10-31T07:21:40;13.60;99.90
41469;DHT22;27206;47.032;15.484;2023-10-31T07:24:06;13.70;99.90
41469;DHT22;27206;47.032;15.484;2023-10-31T07:26:34;13.70;99.90
41469;DHT22;27206;47.032;15.484;2023-10-31T07:29:00;13.70;99.90
41469;DHT22;27206;47.032;15.484;2023-10-31T07:31:26;13.60;99.90
41469;DHT22;27206;47.032;15.484;2023-10-31T07:33:52;13.50;99.90
41469;DHT22;27206;47.032;15.484;2023-10-31T07:36:17;13.50;99.90
41469;DHT22;27206;47.032;15.484;2023-10-31T07:38:43;13.50;99.90
41469;DHT22;27206;47.032;15.484;2023-10-31T07:41:08;13.60;99.90
41469;DHT22;27206;47.032;15.484;2023-10-31T07:43:34;13.60;99.90
41469;DHT22;27206;47.032;15.484;2023-10-31T07:46:00;13.70;99.90
41469;DHT22;27206;47.032;15.484;2023-10-31T07:48:26;13.70;99.90
41469;DHT22;27206;47.032;15.484;2023-10-31T07:50:51;13.70;99.90
41469;DHT22;27206;47.032;15.484;2023-10-31T07:53:17;13.70;99.90
41469;DHT22;27206;47.032;15.484;2023-10-31T07:55:43;13.80;99.90
41469;DHT22;27206;47.032;15.484;2023-10-31T07:58:08;13.90;99.90
41469;DHT22;27206;47.032;15.484;2023-10-31T08:00:35;13.90;99.90
41469;DHT22;27206;47.032;15.484;2023-10-31T08:03:01;14.00;99.90
41469;DHT22;27206;47.032;15.484;2023-10-31T08:05:27;14.10;99.90
41469;DHT22;27206;47.032;15.484;2023-10-31T08:07:53;14.20;99.90
41469;DHT22;27206;47.032;15.484;2023-10-31T08:10:19;14.30;99.90
41469;DHT22;27206;47.032;15.484;2023-10-31T08:12:44;14.30;99.90
41469;DHT22;27206;47.032;15.484;2023-10-31T08:15:10;14.40;99.90
41469;DHT22;27206;47.032;15.484;2023-10-31T08:17:36;14.40;99.90
41469;DHT22;27206;47.032;15.484;2023-10-31T08:20:02;14.40;99.90
41469;DHT22;27206;47.032;15.484;2023-10-31T08:22:29;14.40;99.90
41469;DHT22;27206;47.032;15.484;2023-10-31T08:24:54;14.40;99.90
41469;DHT22;27206;47.032;15.484;2023-10-31T08:27:20;14.30;99.90
41469;DHT22;27206;47.032;15.484;2023-10-31T08:29:47;14.30;99.90
41469;DHT22;27206;47.032;15.484;2023-10-31T08:32:12;14.30;99.90
41469;DHT22;27206;47.032;15.484;2023-10-31T08:34:38;14.30;99.90
41469;DHT22;27206;47.032;15.484;2023-10-31T08:37:04;14.30;99.90
41469;DHT22;27206;47.032;15.484;2023-10-31T08:39:29;14.30;99.90
41469;DHT22;27206;47.032;15.484;2023-10-31T08:41:57;14.40;99.90
41469;DHT22;27206;47.032;15.484;2023-10-31T08:44:23;14.30;99.90
41469;DHT22;27206;47.032;15.484;2023-10-31T08:46:48;14.40;99.90
41469;DHT22;27206;47.032;15.484;2023-10-31T08:49:15;14.40;99.90
41469;DHT22;27206;47.032;15.484;2023-10-31T08:51:41;14.40;99.90
41469;DHT22;27206;47.032;15.484;2023-10-31T08:54:07;14.40;99.90
41469;DHT22;27206;47.032;15.484;2023-10-31T08:56:34;14.30;99.90
41469;DHT22;27206;47.032;15.484;2023-10-31T08:59:00;14.30;99.90
41469;DHT22;27206;47.032;15.484;2023-10-31T09:01:26;14.30;99.90
41469;DHT22;27206;47.032;15.484;2023-10-31T09:03:52;14.30;99.90
41469;DHT22;27206;47.032;15.484;2023-10-31T09:06:18;14.30;99.90
41469;DHT22;27206;47.032;15.484;2023-10-31T09:08:44;14.20;99.90
41469;DHT22;27206;47.032;15.484;2023-10-31T09:11:09;14.20;99.90
41469;DHT22;27206;47.032;15.484;2023-10-31T09:13:35;14.20;99.90
41469;DHT22;27206;47.032;15.484;2023-10-31T09:16:00;14.20;99.90
41469;DHT22;27206;47.032;15.484;2023-10-31T09:18:26;14.20;99.90
41469;DHT22;27206;47.032;15.484;2023-10-31T09:20:55;14.20;99.90
41469;DHT22;27206;47.032;15.484;2023-10-31T09:23:20;14.10;99.90
41469;DHT22;27206;47.032;15.484;2023-10-31T09:25:46;14.10;99.90
41469;DHT22;27206;47.032;15.484;2023-10-31T09:28:12;14.20;99.90
41469;DHT22;27206;47.032;15.484;2023-10-31T09:30:40;14.20;99.90
41469;DHT22;27206;47.032;15.484;2023-10-31T09:33:05;14.10;99.90
41469;DHT22;27206;47.032;15.484;2023-10-31T09:35:31;14.10;99.90
41469;DHT22;27206;47.032;15.484;2023-10-31T09:37:56;14.00;99.90
41469;DHT22;27206;47.032;15.484;2023-10-31T09:40:23;13.80;99.90
41469;DHT22;27206;47.032;15.484;2023-10-31T09:42:48;13.40;99.90
41469;DHT22;27206;47.032;15.484;2023-10-31T09:45:14;13.00;99.90
41469;DHT22;27206;47.032;15.484;2023-10-31T09:47:40;12.90;99.90
41469;DHT22;27206;47.032;15.484;2023-10-31T09:50:07;12.80;99.90
41469;DHT22;27206;47.032;15.484;2023-10-31T09:52:36;12.70;99.90
41469;DHT22;27206;47.032;15.484;2023-10-31T09:55:03;12.70;99.90
41469;DHT22;27206;47.032;15.484;2023-10-31T09:57:29;12.70;99.90
41469;DHT22;27206;47.032;15.484;2023-10-31T09:59:55;12.70;99.90
41469;DHT22;27206;47.032;15.484;2023-10-31T10:02:20;12.70;99.90
41469;DHT22;27206;47.032;15.484;2023-10-31T10:04:47;12.70;99.90
41469;DHT22;27206;47.032;15.484;2023-10-31T10:07:17;12.70;99.90
41469;DHT22;27206;47.032;15.484;2023-10-31T10:09:44;12.70;99.90
41469;DHT22;27206;47.032;15.484;2023-10-31T10:12:12;12.70;99.90
41469;DHT22;27206;47.032;15.484;2023-10-31T10:14:39;12.70;99.90
41469;DHT22;27206;47.032;15.484;2023-10-31T10:17:24;12.70;99.90
41469;DHT22;27206;47.032;15.484;2023-10-31T10:20:06;12.70;99.90
41469;DHT22;27206;47.032;15.484;2023-10-31T10:22:39;12.70;99.90
41469;DHT22;27206;47.032;15.484;2023-10-31T10:25:06;12.70;99.90
41469;DHT22;27206;47.032;15.484;2023-10-31T10:27:32;12.70;99.90
41469;DHT22;27206;47.032;15.484;2023-10-31T10:29:58;12.80;99.90
41469;DHT22;27206;47.032;15.484;2023-10-31T10:32:24;12.70;99.90
41469;DHT22;27206;47.032;15.484;2023-10-31T10:34:49;12.60;99.90
41469;DHT22;27206;47.032;15.484;2023-10-31T10:37:17;12.70;99.90
41469;DHT22;27206;47.032;15.484;2023-10-31T10:39:47;12.70;99.90
41469;DHT22;27206;47.032;15.484;2023-10-31T10:42:16;12.70;99.90
41469;DHT22;27206;47.032;15.484;2023-10-31T10:44:44;12.70;99.90
41469;DHT22;27206;47.032;15.484;2023-10-31T10:47:12;12.70;99.90
41469;DHT22;27206;47.032;15.484;2023-10-31T10:49:41;12.80;99.90
41469;DHT22;27206;47.032;15.484;2023-10-31T10:52:17;12.60;99.90
41469;DHT22;27206;47.032;15.484;2023-10-31T11:00:01;12.50;99.90
41469;DHT22;27206;47.032;15.484;2023-10-31T11:02:27;12.50;99.90
41469;DHT22;27206;47.032;15.484;2023-10-31T11:04:55;12.50;99.90
41469;DHT22;27206;47.032;15.484;2023-10-31T11:07:21;12.50;99.90
41469;DHT22;27206;47.032;15.484;2023-10-31T11:09:49;12.40;99.90
41469;DHT22;27206;47.032;15.484;2023-10-31T11:12:15;12.40;99.90
41469;DHT22;27206;47.032;15.484;2023-10-31T11:14:42;12.50;99.90
41469;DHT22;27206;47.032;15.484;2023-10-31T11:17:28;12.50;99.90
41469;DHT22;27206;47.032;15.484;2023-10-31T11:19:56;12.60;99.90
41469;DHT22;27206;47.032;15.484;2023-10-31T11:22:22;12.70;99.90
41469;DHT22;27206;47.032;15.484;2023-10-31T11:24:49;12.70;99.90
41469;DHT22;27206;47.032;15.484;2023-10-31T11:27:17;12.70;99.90
41469;DHT22;27206;47.032;15.484;2023-10-31T11:29:42;12.80;99.90
41469;DHT22;27206;47.032;15.484;2023-10-31T11:32:12;12.70;99.90
41469;DHT22;27206;47.032;15.484;2023-10-31T11:34:41;12.60;99.90
41469;DHT22;27206;47.032;15.484;2023-10-31T11:37:28;12.50;99.90
41469;DHT22;27206;47.032;15.484;2023-10-31T11:40:21;12.50;99.90
41469;DHT22;27206;47.032;15.484;2023-10-31T11:42:52;12.40;99.90
41469;DHT22;27206;47.032;15.484;2023-10-31T11:45:27;12.40;99.90
41469;DHT22;27206;47.032;15.484;2023-10-31T11:47:55;12.60;99.90
41469;DHT22;27206;47.032;15.484;2023-10-31T11:50:22;13.20;99.90
41469;DHT22;27206;47.032;15.484;2023-10-31T11:53:00;13.10;99.90
41469;DHT22;27206;47.032;15.484;2023-10-31T11:55:27;12.90;94.00
41469;DHT22;27206;47.032;15.484;2023-10-31T11:57:53;12.80;96.20
41469;DHT22;27206;47.032;15.484;2023-10-31T12:00:23;12.60;96.80
41469;DHT22;27206;47.032;15.484;2023-10-31T12:05:24;12.50;97.70
41469;DHT22;27206;47.032;15.484;2023-10-31T12:07:50;12.40;98.40
41469;DHT22;27206;47.032;15.484;2023-10-31T12:10:26;12.30;96.70
41469;DHT22;27206;47.032;15.484;2023-10-31T12:12:55;12.10;97.30
41469;DHT22;27206;47.032;15.484;2023-10-31T12:15:22;12.30;96.40
41469;DHT22;27206;47.032;15.484;2023-10-31T12:17:48;12.20;98.30
41469;DHT22;27206;47.032;15.484;2023-10-31T12:20:14;12.10;97.30
41469;DHT22;27206;47.032;15.484;2023-10-31T12:22:41;12.10;99.90
41469;DHT22;27206;47.032;15.484;2023-10-31T12:25:08;12.00;99.90
41469;DHT22;27206;47.032;15.484;2023-10-31T12:27:47;11.90;99.90
41469;DHT22;27206;47.032;15.484;2023-10-31T12:30:16;11.90;95.00
41469;DHT22;27206;47.032;15.484;2023-10-31T12:32:43;11.90;95.70
41469;DHT22;27206;47.032;15.484;2023-10-31T12:35:12;11.90;94.10
41469;DHT22;27206;47.032;15.484;2023-10-31T12:37:46;11.90;93.70
41469;DHT22;27206;47.032;15.484;2023-10-31T12:40:20;11.80;93.90
41469;DHT22;27206;47.032;15.484;2023-10-31T12:42:47;11.80;99.10
41469;DHT22;27206;47.032;15.484;2023-10-31T12:45:14;11.70;96.30
41469;DHT22;27206;47.032;15.484;2023-10-31T12:47:40;11.70;96.40
41469;DHT22;27206;47.032;15.484;2023-10-31T12:50:08;11.70;99.90
41469;DHT22;27206;47.032;15.484;2023-10-31T12:52:51;11.50;99.90
41469;DHT22;27206;47.032;15.484;2023-10-31T12:55:18;11.60;99.30
41469;DHT22;27206;47.032;15.484;2023-10-31T12:57:44;11.60;99.90
41469;DHT22;27206;47.032;15.484;2023-10-31T13:00:13;11.60;99.90
41469;DHT22;27206;47.032;15.484;2023-10-31T13:02:41;11.60;99.90
41469;DHT22;27206;47.032;15.484;2023-10-31T13:05:14;11.50;99.90
41469;DHT22;27206;47.032;15.484;2023-10-31T13:07:50;11.50;99.90
41469;DHT22;27206;47.032;15.484;2023-10-31T13:10:18;11.40;99.90
41469;DHT22;27206;47.032;15.484;2023-10-31T13:12:46;11.50;99.90
41469;DHT22;27206;47.032;15.484;2023-10-31T13:15:20;11.60;99.90
41469;DHT22;27206;47.032;15.484;2023-10-31T13:17:47;11.60;99.90
41469;DHT22;27206;47.032;15.484;2023-10-31T13:20:14;11.60;99.90
41469;DHT22;27206;47.032;15.484;2023-10-31T13:22:41;11.60;99.90
41469;DHT22;27206;47.032;15.484;2023-10-31T13:25:09;11.60;99.90
41469;DHT22;27206;47.032;15.484;2023-10-31T13:27:37;11.50;99.90
41469;DHT22;27206;47.032;15.484;2023-10-31T13:30:03;11.50;99.90
41469;DHT22;27206;47.032;15.484;2023-10-31T13:32:29;11.40;99.90
41469;DHT22;27206;47.032;15.484;2023-10-31T13:34:55;11.30;99.90
41469;DHT22;27206;47.032;15.484;2023-10-31T13:37:20;11.30;99.90
41469;DHT22;27206;47.032;15.484;2023-10-31T13:39:46;11.10;99.90
41469;DHT22;27206;47.032;15.484;2023-10-31T13:42:16;11.10;99.90
41469;DHT22;27206;47.032;15.484;2023-10-31T13:44:42;11.10;99.90
41469;DHT22;27206;47.032;15.484;2023-10-31T13:47:08;11.10;99.90
41469;DHT22;27206;47.032;15.484;2023-10-31T13:49:34;11.20;99.90
41469;DHT22;27206;47.032;15.484;2023-10-31T13:52:00;11.10;99.90
41469;DHT22;27206;47.032;15.484;2023-10-31T13:54:26;11.10;99.90
41469;DHT22;27206;47.032;15.484;2023-10-31T13:56:52;11.10;99.90
41469;DHT22;27206;47.032;15.484;2023-10-31T13:59:17;11.00;99.90
41469;DHT22;27206;47.032;15.484;2023-10-31T14:01:44;11.00;99.90
41469;DHT22;27206;47.032;15.484;2023-10-31T14:04:13;11.00;99.90
41469;DHT22;27206;47.032;15.484;2023-10-31T14:06:40;10.90;99.90
41469;DHT22;27206;47.032;15.484;2023-10-31T14:09:08;10.80;99.90
41469;DHT22;27206;47.032;15.484;2023-10-31T14:11:35;10.90;99.90
41469;DHT22;27206;47.032;15.484;2023-10-31T14:14:01;10.90;99.90
41469;DHT22;27206;47.032;15.484;2023-10-31T14:16:41;10.80;99.90
41469;DHT22;27206;47.032;15.484;2023-10-31T14:19:13;10.70;99.90
41469;DHT22;27206;47.032;15.484;2023-10-31T14:21:40;10.70;99.90
41469;DHT22;27206;47.032;15.484;2023-10-31T14:24:06;10.60;99.90
41469;DHT22;27206;47.032;15.484;2023-10-31T14:26:34;10.50;99.90
41469;DHT22;27206;47.032;15.484;2023-10-31T14:28:59;10.50;99.90
41469;DHT22;27206;47.032;15.484;2023-10-31T14:31:25;10.50;99.90
41469;DHT22;27206;47.032;15.484;2023-10-31T14:33:51;10.40;99.90
41469;DHT22;27206;47.032;15.484;2023-10-31T14:36:17;10.40;99.90
41469;DHT22;27206;47.032;15.484;2023-10-31T14:38:42;10.30;99.90
41469;DHT22;27206;47.032;15.484;2023-10-31T14:41:09;10.30;99.90
41469;DHT22;27206;47.032;15.484;2023-10-31T14:43:35;10.30;99.90
41469;DHT22;27206;47.032;15.484;2023-10-31T14:46:01;10.40;99.90
41469;DHT22;27206;47.032;15.484;2023-10-31T14:48:28;10.30;99.90
41469;DHT22;27206;47.032;15.484;2023-10-31T14:50:54;10.30;99.90
41469;DHT22;27206;47.032;15.484;2023-10-31T14:53:19;10.30;99.90
41469;DHT22;27206;47.032;15.484;2023-10-31T14:55:46;10.30;99.90
41469;DHT22;27206;47.032;15.484;2023-10-31T14:58:11;10.30;99.90
41469;DHT22;27206;47.032;15.484;2023-10-31T15:00:37;10.30;99.90
41469;DHT22;27206;47.032;15.484;2023-10-31T15:03:04;10.30;99.90
41469;DHT22;27206;47.032;15.484;2023-10-31T15:05:29;10.30;99.90
41469;DHT22;27206;47.032;15.484;2023-10-31T15:07:56;10.30;99.90
41469;DHT22;27206;47.032;15.484;2023-10-31T15:10:23;10.40;99.90
41469;DHT22;27206;47.032;15.484;2023-10-31T15:12:49;10.40;99.90
41469;DHT22;27206;47.032;15.484;2023-10-31T15:15:15;10.40;99.90
41469;DHT22;27206;47.032;15.484;2023-10-31T15:17:41;10.50;99.90
41469;DHT22;27206;47.032;15.484;2023-10-31T15:20:07;10.50;99.90